Time;durP1;ratioP1;P1;durP2;ratioP2;P2;SDS_P1;SDS_P2;PMS_P1;PMS_P2;Temp;Humidity;BMP_temperature;BMP_pressure;BME280_temperature;BME280_humidity;BME280_pressure;Samples;Min_cycle;Max_cycle;Signal;HPM_P1;HPM_P2
2023/06/15 00:00:12;;;;;;;0.40;0.40;;;;;;;22.11;100.00;99189.94;5071103;28;20211;-72
2023/06/15 00:02:39;;;;;;;0.43;0.43;;;;;;;22.11;100.00;99189.09;5070902;28;20219;-73
2023/06/15 00:05:07;;;;;;;0.40;0.40;;;;;;;22.10;100.00;99193.47;5071430;28;20208;-72
2023/06/15 00:07:34;;;;;;;0.53;0.53;;;;;;;22.10;100.00;99190.88;5071027;28;20715;-73
2023/06/15 00:10:02;;;;;;;0.60;0.60;;;;;;;22.12;100.00;99188.16;5070733;28;20254;-73
2023/06/15 00:12:29;;;;;;;0.40;0.40;;;;;;;22.06;100.00;99186.03;5071050;28;20588;-73
2023/06/15 00:14:56;;;;;;;0.50;0.50;;;;;;;22.10;100.00;99200.50;5070307;28;20220;-73
2023/06/15 00:17:23;;;;;;;0.50;0.50;;;;;;;22.09;100.00;99201.44;5071355;28;20204;-73
2023/06/15 00:19:50;;;;;;;0.53;0.53;;;;;;;22.06;100.00;99205.16;5070580;28;20214;-73
2023/06/15 00:22:17;;;;;;;0.67;0.67;;;;;;;22.02;100.00;99197.66;5070826;28;20200;-72
2023/06/15 00:24:44;;;;;;;0.40;0.40;;;;;;;21.98;100.00;99192.69;5069254;28;20195;-73
2023/06/15 00:27:12;;;;;;;0.47;0.47;;;;;;;21.95;100.00;99187.72;5070892;28;20227;-73
2023/06/15 00:29:39;;;;;;;0.40;0.40;;;;;;;21.95;100.00;99187.72;5070646;28;20212;-73
2023/06/15 00:32:07;;;;;;;0.60;0.60;;;;;;;21.95;100.00;99198.16;5070983;28;20208;-73
2023/06/15 00:34:34;;;;;;;0.50;0.50;;;;;;;21.95;100.00;99192.94;5069652;28;20281;-73
2023/06/15 00:37:01;;;;;;;1.00;1.00;;;;;;;21.93;100.00;99194.84;5071227;28;20207;-73
2023/06/15 00:39:27;;;;;;;0.50;0.50;;;;;;;21.94;100.00;99195.66;5071072;28;20204;-73
2023/06/15 00:41:54;;;;;;;0.60;0.60;;;;;;;21.93;100.00;99194.03;5067514;28;22574;-73
2023/06/15 00:44:22;;;;;;;0.53;0.53;;;;;;;21.91;100.00;99193.31;5070163;28;20642;-73
2023/06/15 00:46:49;;;;;;;0.40;0.40;;;;;;;21.87;100.00;99192.69;5068726;28;20307;-73
2023/06/15 00:49:17;;;;;;;0.47;0.47;;;;;;;21.83;100.00;99193.06;5069857;28;20204;-73
2023/06/15 00:51:43;;;;;;;0.40;0.40;;;;;;;21.77;100.00;99190.94;5069701;28;20680;-72
2023/06/15 00:54:12;;;;;;;0.50;0.50;;;;;;;21.74;100.00;99189.41;5070069;28;20220;-73
2023/06/15 00:56:39;;;;;;;0.50;0.50;;;;;;;21.69;100.00;99191.53;5070073;28;20227;-73
2023/06/15 00:59:06;;;;;;;0.50;0.50;;;;;;;21.60;100.00;99192.28;5068514;28;20192;-73
2023/06/15 01:01:36;;;;;;;0.43;0.43;;;;;;;21.53;100.00;99185.03;5070444;28;20196;-73
2023/06/15 01:04:03;;;;;;;0.60;0.60;;;;;;;21.45;100.00;99183.84;5069799;28;20206;-73
2023/06/15 01:06:34;;;;;;;0.50;0.50;;;;;;;21.37;100.00;99182.81;5069116;28;20212;-73
2023/06/15 01:09:02;;;;;;;0.63;0.63;;;;;;;21.28;100.00;99175.69;5069648;28;20211;-73
2023/06/15 01:11:31;;;;;;;0.77;0.77;;;;;;;21.28;100.00;99178.31;5070577;28;20664;-73
2023/06/15 01:13:58;;;;;;;0.50;0.50;;;;;;;21.27;100.00;99179.25;5069808;28;20219;-72
2023/06/15 01:16:33;;;;;;;0.50;0.50;;;;;;;21.22;100.00;99170.97;5069911;28;20196;-73
2023/06/15 01:19:03;;;;;;;0.50;0.50;;;;;;;21.17;100.00;99178.28;5067969;28;20210;-72
2023/06/15 01:21:30;;;;;;;0.57;0.57;;;;;;;21.10;100.00;99175.31;5069475;28;20231;-73
2023/06/15 01:24:12;;;;;;;0.50;0.50;;;;;;;21.07;100.00;99172.09;5069441;28;20207;-72
2023/06/15 01:26:41;;;;;;;0.37;0.37;;;;;;;21.00;100.00;99165.72;5069893;28;20298;-73
2023/06/15 01:29:10;;;;;;;0.50;0.50;;;;;;;20.91;100.00;99168.06;5069391;28;20227;-73
2023/06/15 01:31:38;;;;;;;1.03;1.03;;;;;;;20.88;100.00;99167.47;5069843;28;20743;-73
2023/06/15 01:34:06;;;;;;;0.70;0.70;;;;;;;20.82;100.00;99168.75;5069682;28;20272;-73
2023/06/15 01:36:33;;;;;;;0.63;0.63;;;;;;;20.71;100.00;99160.91;5068915;28;20654;-73
2023/06/15 01:39:00;;;;;;;0.50;0.50;;;;;;;20.69;100.00;99162.81;5068863;28;20253;-73
2023/06/15 01:41:27;;;;;;;0.70;0.70;;;;;;;20.56;100.00;99169.88;5068761;28;20249;-73
2023/06/15 01:43:57;;;;;;;0.47;0.47;;;;;;;20.53;100.00;99156.25;5067835;28;20290;-73
2023/06/15 01:46:25;;;;;;;0.50;0.50;;;;;;;20.49;100.00;99165.22;5069162;28;20204;-73
2023/06/15 01:48:53;;;;;;;0.53;0.53;;;;;;;20.39;100.00;99168.53;5067348;28;20295;-73
2023/06/15 01:51:21;;;;;;;0.40;0.40;;;;;;;20.26;100.00;99153.88;5069331;28;20211;-73
2023/06/15 01:53:48;;;;;;;0.80;0.80;;;;;;;20.13;100.00;99163.56;5066509;28;20250;-73
2023/06/15 01:56:16;;;;;;;0.80;0.80;;;;;;;20.12;100.00;99154.91;5068098;28;20202;-73
2023/06/15 01:58:42;;;;;;;0.67;0.67;;;;;;;20.14;100.00;99165.19;5070009;28;20230;-73
2023/06/15 02:01:10;;;;;;;0.53;0.53;;;;;;;20.14;100.00;99162.59;5067933;28;20198;-73
2023/06/15 02:03:37;;;;;;;0.70;0.70;;;;;;;20.08;100.00;99157.84;5069089;28;21000;-73
2023/06/15 02:06:04;;;;;;;0.77;0.77;;;;;;;20.11;100.00;99155.03;5067358;28;20200;-73
2023/06/15 02:08:31;;;;;;;0.50;0.50;;;;;;;20.10;100.00;99164.59;5066859;28;20266;-73
2023/06/15 02:10:58;;;;;;;0.73;0.73;;;;;;;20.16;100.00;99158.94;5065588;28;20211;-73
2023/06/15 02:13:24;;;;;;;0.40;0.40;;;;;;;20.24;100.00;99167.03;5072690;28;20207;-73
2023/06/15 02:15:51;;;;;;;0.50;0.50;;;;;;;20.25;100.00;99162.66;5073157;28;20227;-73
2023/06/15 02:18:20;;;;;;;0.50;0.50;;;;;;;20.28;100.00;99167.66;5072566;28;20204;-73
2023/06/15 02:20:47;;;;;;;0.43;0.43;;;;;;;20.26;100.00;99164.28;5072278;28;20210;-73
2023/06/15 02:23:14;;;;;;;0.50;0.50;;;;;;;20.20;100.00;99155.19;5073464;28;20634;-73
2023/06/15 02:25:41;;;;;;;0.40;0.40;;;;;;;20.22;100.00;99162.88;5072361;28;20707;-73
2023/06/15 02:28:08;;;;;;;0.80;0.80;;;;;;;20.28;100.00;99165.91;5072885;28;20283;-73
2023/06/15 02:30:34;;;;;;;0.40;0.40;;;;;;;20.29;100.00;99180.56;5072831;28;20203;-73
2023/06/15 02:33:02;;;;;;;0.60;0.60;;;;;;;20.32;100.00;99169.13;5072523;28;20206;-73
2023/06/15 02:35:30;;;;;;;0.80;0.80;;;;;;;20.30;100.00;99171.81;5073665;28;20648;-73
2023/06/15 02:37:57;;;;;;;0.50;0.50;;;;;;;20.34;100.00;99172.41;5071942;28;20199;-73
2023/06/15 02:40:24;;;;;;;0.53;0.53;;;;;;;20.32;100.00;99174.31;5072020;28;20268;-73
2023/06/15 02:42:50;;;;;;;0.50;0.50;;;;;;;20.25;100.00;99167.88;5070003;28;20211;-73
2023/06/15 02:45:17;;;;;;;0.40;0.40;;;;;;;20.19;100.00;99171.75;5073194;28;20198;-73
2023/06/15 02:47:45;;;;;;;0.40;0.40;;;;;;;20.17;100.00;99172.78;5070353;28;20204;-73
2023/06/15 02:50:12;;;;;;;0.40;0.40;;;;;;;20.14;100.00;99180.81;5072223;28;20256;-73
2023/06/15 02:52:40;;;;;;;0.40;0.40;;;;;;;20.00;100.00;99168.00;5072572;28;20204;-73
2023/06/15 02:55:08;;;;;;;0.43;0.43;;;;;;;20.04;100.00;99172.84;5072870;28;20695;-73
2023/06/15 02:57:35;;;;;;;0.60;0.60;;;;;;;19.94;100.00;99174.44;5072660;28;20290;-74
2023/06/15 03:00:03;;;;;;;0.40;0.40;;;;;;;19.98;100.00;99172.47;5070687;28;20665;-73
2023/06/15 03:02:30;;;;;;;0.43;0.43;;;;;;;19.89;100.00;99177.41;5072076;28;20203;-73
2023/06/15 03:04:57;;;;;;;0.67;0.67;;;;;;;19.84;100.00;99173.44;5072196;28;20203;-73
2023/06/15 03:07:25;;;;;;;0.40;0.40;;;;;;;19.82;100.00;99170.13;5071452;28;20209;-73
2023/06/15 03:09:54;;;;;;;0.70;0.70;;;;;;;19.83;100.00;99175.25;5068910;28;20740;-73
2023/06/15 03:12:20;;;;;;;0.53;0.53;;;;;;;19.76;100.00;99187.00;5071863;28;20217;-74
2023/06/15 03:14:50;;;;;;;2.97;0.90;;;;;;;19.78;100.00;99179.09;5072651;28;20217;-73
2023/06/15 03:17:17;;;;;;;0.30;0.30;;;;;;;19.74;100.00;99183.69;5071661;28;20268;-73
2023/06/15 03:19:46;;;;;;;0.50;0.50;;;;;;;19.70;100.00;99182.25;5071304;28;20795;-73
2023/06/15 03:22:13;;;;;;;0.50;0.50;;;;;;;19.75;100.00;99179.31;5069823;28;20222;-72
2023/06/15 03:24:41;;;;;;;0.50;0.50;;;;;;;19.78;100.00;99185.13;5072291;28;20632;-73
2023/06/15 03:27:10;;;;;;;0.50;0.50;;;;;;;19.67;100.00;99185.06;5071766;28;20207;-73
2023/06/15 03:29:37;;;;;;;0.63;0.63;;;;;;;19.70;100.00;99177.06;5067212;28;20246;-73
2023/06/15 03:32:06;;;;;;;0.33;0.33;;;;;;;19.69;100.00;99175.38;5071946;28;20245;-74
2023/06/15 03:34:32;;;;;;;0.50;0.50;;;;;;;19.52;100.00;99157.53;5070788;28;20224;-74
2023/06/15 03:36:59;;;;;;;0.63;0.63;;;;;;;19.64;100.00;99180.09;5071817;28;20197;-74
2023/06/15 03:39:26;;;;;;;0.53;0.53;;;;;;;19.66;100.00;99180.81;5068629;28;20645;-74
2023/06/15 03:41:53;;;;;;;0.50;0.50;;;;;;;19.71;100.00;99178.69;5071360;28;20644;-74
2023/06/15 03:44:21;;;;;;;0.60;0.60;;;;;;;19.78;100.00;99182.53;5071728;28;20196;-74
2023/06/15 03:46:48;;;;;;;0.53;0.53;;;;;;;19.75;100.00;99174.94;5072047;28;20649;-74
2023/06/15 03:49:15;;;;;;;0.60;0.60;;;;;;;19.74;100.00;99173.28;5070670;28;20755;-74
2023/06/15 03:51:42;;;;;;;0.70;0.70;;;;;;;19.73;100.00;99173.41;5070869;28;20260;-74
2023/06/15 03:54:09;;;;;;;0.60;0.60;;;;;;;19.71;100.00;99173.50;5071362;28;20682;-74
2023/06/15 03:56:36;;;;;;;0.50;0.50;;;;;;;19.75;100.00;99169.75;5070521;28;20211;-74
2023/06/15 03:59:03;;;;;;;0.70;0.70;;;;;;;19.78;100.00;99174.72;5071617;28;20212;-74
2023/06/15 04:01:32;;;;;;;0.50;0.50;;;;;;;19.79;100.00;99171.19;5070723;28;20595;-74
2023/06/15 04:03:59;;;;;;;0.43;0.43;;;;;;;19.82;100.00;99176.16;5063609;28;20295;-74
2023/06/15 04:06:27;;;;;;;0.50;0.50;;;;;;;19.78;100.00;99185.13;5067065;28;20211;-74
2023/06/15 04:08:54;;;;;;;0.60;0.60;;;;;;;19.83;100.00;99188.25;5062978;28;20703;-74
2023/06/15 04:11:21;;;;;;;1.00;1.00;;;;;;;19.81;100.00;99182.31;5071020;28;20230;-74
2023/06/15 04:13:47;;;;;;;0.70;0.70;;;;;;;19.87;100.00;99189.66;5070615;28;20207;-74
2023/06/15 04:16:14;;;;;;;0.47;0.47;;;;;;;19.93;100.00;99193.63;5071235;28;20223;-74
2023/06/15 04:18:42;;;;;;;0.60;0.60;;;;;;;20.10;100.00;99200.19;5070709;28;20213;-74
2023/06/15 04:21:09;;;;;;;0.60;0.60;;;;;;;20.17;100.00;99196.22;5071636;28;20221;-74
2023/06/15 04:23:36;;;;;;;0.50;0.50;;;;;;;20.22;100.00;99205.38;5068234;28;20599;-73
2023/06/15 04:26:03;;;;;;;0.50;0.50;;;;;;;20.24;100.00;99207.84;5071061;28;20686;-74
2023/06/15 04:28:30;;;;;;;0.57;0.57;;;;;;;20.25;100.00;99204.31;5069597;28;20605;-74
2023/06/15 04:31:08;;;;;;;0.50;0.50;;;;;;;20.39;100.00;99209.34;5070595;28;20207;-74
2023/06/15 04:33:36;;;;;;;0.30;0.30;;;;;;;20.43;100.00;99213.41;5070547;28;20298;-74
2023/06/15 04:36:04;;;;;;;0.47;0.47;;;;;;;20.48;100.00;99219.13;5070476;28;20222;-71
2023/06/15 04:38:31;;;;;;;0.50;0.50;;;;;;;20.52;100.00;99217.94;5070935;28;20702;-71
2023/06/15 04:40:59;;;;;;;0.40;0.40;;;;;;;20.58;100.00;99227.88;5070402;28;20209;-71
2023/06/15 04:43:26;;;;;;;0.50;0.50;;;;;;;20.67;100.00;99219.41;5070901;28;20213;-72
2023/06/15 04:45:53;;;;;;;0.63;0.63;;;;;;;20.87;100.00;99213.53;5070347;28;21356;-71
2023/06/15 04:48:19;;;;;;;0.43;0.43;;;;;;;21.08;100.00;99220.69;5061139;28;20584;-73
2023/06/15 04:50:48;;;;;;;0.60;0.60;;;;;;;21.17;100.00;99225.22;5068261;28;20272;-73
2023/06/15 04:53:18;;;;;;;0.40;0.40;;;;;;;21.17;100.00;99220.84;5063654;28;20238;-73
2023/06/15 04:55:45;;;;;;;0.90;0.90;;;;;;;21.29;100.00;99225.09;5070096;28;20342;-73
2023/06/15 04:58:13;;;;;;;0.43;0.43;;;;;;;21.51;100.00;99229.50;5069998;28;20719;-73
2023/06/15 05:00:39;;;;;;;0.40;0.40;;;;;;;21.74;100.00;99235.56;5069948;28;20721;-73
2023/06/15 05:03:06;;;;;;;0.57;0.57;;;;;;;22.02;100.00;99234.22;5069522;28;20237;-73
2023/06/15 05:05:33;;;;;;;0.23;0.23;;;;;;;22.32;100.00;99237.00;5069023;28;20248;-73
2023/06/15 05:08:00;;;;;;;0.87;0.87;;;;;;;22.74;100.00;99238.75;5065287;28;20204;-73
2023/06/15 05:10:28;;;;;;;0.50;0.50;;;;;;;22.95;100.00;99234.34;5067800;28;20215;-70
2023/06/15 05:12:55;;;;;;;0.60;0.60;;;;;;;23.20;100.00;99219.22;5072037;28;20203;-71
2023/06/15 05:15:22;;;;;;;0.40;0.40;;;;;;;23.33;96.85;99245.97;5065587;28;20223;-71
2023/06/15 05:17:49;;;;;;;0.30;0.30;;;;;;;23.16;97.40;99233.50;5071353;28;20695;-70
2023/06/15 05:20:16;;;;;;;0.70;0.70;;;;;;;23.18;97.08;99239.41;5072017;28;20703;-69
2023/06/15 05:22:42;;;;;;;0.57;0.57;;;;;;;23.17;98.26;99245.59;5072072;28;20279;-70
2023/06/15 05:25:10;;;;;;;0.50;0.50;;;;;;;23.24;98.86;99236.28;5072118;28;20196;-69
2023/06/15 05:27:38;;;;;;;0.50;0.50;;;;;;;23.40;97.78;99231.44;5071746;28;20232;-70
2023/06/15 05:30:07;;;;;;;0.50;0.50;;;;;;;23.66;96.65;99237.88;5072053;28;20204;-69
2023/06/15 05:32:38;;;;;;;0.50;0.50;;;;;;;23.77;94.17;99235.16;5071644;28;20672;-69
2023/06/15 05:35:07;;;;;;;0.40;0.40;;;;;;;23.81;95.27;99236.53;5072074;28;20298;-69
2023/06/15 05:37:34;;;;;;;0.50;0.50;;;;;;;23.98;93.80;99238.50;5071495;28;20200;-69
2023/06/15 05:40:02;;;;;;;0.60;0.60;;;;;;;23.91;93.41;99237.41;5071814;28;20196;-68
2023/06/15 05:42:29;;;;;;;0.50;0.50;;;;;;;24.05;93.56;99229.16;5071682;28;20208;-68
2023/06/15 05:44:57;;;;;;;0.37;0.37;;;;;;;24.18;92.91;99228.09;5070580;28;20561;-66
2023/06/15 05:47:24;;;;;;;0.33;0.33;;;;;;;24.34;93.68;99234.47;5070521;28;20203;-68
2023/06/15 05:49:51;;;;;;;0.40;0.40;;;;;;;24.41;91.92;99239.97;5070567;28;20257;-66
2023/06/15 05:52:19;;;;;;;0.90;0.90;;;;;;;24.30;90.80;99227.00;5070695;28;20238;-66
2023/06/15 05:54:46;;;;;;;0.30;0.30;;;;;;;24.22;91.46;99239.97;5071312;28;20703;-67
2023/06/15 05:57:13;;;;;;;0.40;0.40;;;;;;;24.14;90.40;99234.56;5071076;28;20211;-67
2023/06/15 05:59:40;;;;;;;0.43;0.43;;;;;;;24.05;91.83;99234.41;5070445;28;20196;-66
2023/06/15 06:02:09;;;;;;;0.40;0.40;;;;;;;23.81;92.51;99231.28;5070836;28;20210;-66
2023/06/15 06:04:36;;;;;;;0.50;0.50;;;;;;;23.78;92.96;99231.56;5070684;28;20272;-66
2023/06/15 06:07:05;;;;;;;0.60;0.60;;;;;;;23.66;94.99;99227.41;5068694;28;20626;-71
2023/06/15 06:09:33;;;;;;;0.40;0.40;;;;;;;23.67;95.56;99228.25;5069249;28;20214;-66
2023/06/15 06:12:00;;;;;;;0.30;0.30;;;;;;;23.85;96.23;99232.69;5070678;28;20640;-67
2023/06/15 06:14:27;;;;;;;0.63;0.63;;;;;;;24.08;96.30;99237.69;5070614;28;20207;-67
2023/06/15 06:16:54;;;;;;;0.60;0.60;;;;;;;24.25;94.82;99229.22;5070473;28;20227;-67
2023/06/15 06:19:22;;;;;;;0.43;0.43;;;;;;;24.25;93.98;99223.97;5070645;28;20207;-68
2023/06/15 06:21:49;;;;;;;0.57;0.57;;;;;;;24.28;91.63;99226.31;5070026;28;20220;-66
2023/06/15 06:24:16;;;;;;;0.47;0.47;;;;;;;24.33;93.40;99227.56;5070379;28;20195;-67
2023/06/15 06:26:43;;;;;;;0.40;0.40;;;;;;;24.38;91.20;99230.63;5069752;28;20610;-66
2023/06/15 06:29:10;;;;;;;0.30;0.30;;;;;;;24.53;90.70;99233.63;5068937;28;20707;-67
2023/06/15 06:31:37;;;;;;;0.37;0.37;;;;;;;24.54;90.37;99235.28;5070078;28;20737;-72
2023/06/15 06:34:04;;;;;;;0.90;0.90;;;;;;;24.46;91.43;99233.34;5069518;28;20659;-71
2023/06/15 06:36:32;;;;;;;0.40;0.40;;;;;;;24.41;93.05;99232.94;5069735;28;20242;-75
2023/06/15 06:38:59;;;;;;;0.67;0.67;;;;;;;24.57;92.70;99235.03;5069223;28;20207;-71
2023/06/15 06:41:27;;;;;;;0.40;0.40;;;;;;;24.54;91.55;99235.28;5069680;28;20600;-71
2023/06/15 06:43:53;;;;;;;0.40;0.40;;;;;;;24.54;92.13;99236.13;5063466;28;20208;-69
2023/06/15 06:46:22;;;;;;;0.40;0.40;;;;;;;24.53;91.44;99238.88;5065406;28;20401;-69
2023/06/15 06:48:49;;;;;;;0.50;0.50;;;;;;;24.58;93.05;99220.13;5065949;28;20202;-69
2023/06/15 06:51:16;;;;;;;0.50;0.50;;;;;;;24.74;91.15;99234.31;5067013;28;20292;-70
2023/06/15 06:53:44;;;;;;;0.30;0.30;;;;;;;24.70;92.25;99237.34;5066432;28;20215;-70
2023/06/15 06:56:10;;;;;;;0.30;0.30;;;;;;;24.78;89.92;99234.88;5067822;28;20618;-70
2023/06/15 06:58:37;;;;;;;0.50;0.50;;;;;;;24.77;90.85;99225.34;5072986;28;20573;-74
2023/06/15 07:01:04;;;;;;;0.40;0.40;;;;;;;24.89;91.94;99230.31;5071674;28;20195;-72
2023/06/15 07:03:31;;;;;;;0.60;0.60;;;;;;;25.04;90.35;99213.16;5072746;28;20203;-72
2023/06/15 07:05:59;;;;;;;0.73;0.40;;;;;;;25.11;90.14;99233.56;5072279;28;20714;-72
2023/06/15 07:08:26;;;;;;;0.40;0.40;;;;;;;25.18;91.17;99232.03;5071372;28;20204;-71
2023/06/15 07:10:54;;;;;;;0.40;0.40;;;;;;;25.32;88.92;99229.81;5071862;28;20261;-72
2023/06/15 07:13:21;;;;;;;0.50;0.50;;;;;;;25.42;88.11;99232.41;5072318;28;20204;-71
2023/06/15 07:15:49;;;;;;;0.53;0.47;;;;;;;25.57;91.42;99225.72;5071773;28;20220;-71
2023/06/15 07:18:16;;;;;;;0.70;0.70;;;;;;;25.54;88.22;99226.00;5071453;28;20216;-70
2023/06/15 07:20:43;;;;;;;0.87;0.87;;;;;;;25.73;88.69;99220.66;5071281;28;20272;-70
2023/06/15 07:23:09;;;;;;;0.50;0.50;;;;;;;25.92;86.82;99225.81;5073994;28;20203;-69
2023/06/15 07:25:36;;;;;;;0.57;0.57;;;;;;;26.01;85.59;99224.91;5072224;28;20656;-71
2023/06/15 07:28:05;;;;;;;0.40;0.40;;;;;;;26.09;86.21;99227.66;5073667;28;20228;-70
2023/06/15 07:30:31;;;;;;;0.40;0.40;;;;;;;26.32;86.80;99222.81;5073336;28;20250;-69
2023/06/15 07:32:58;;;;;;;0.83;0.83;;;;;;;26.25;84.74;99213.03;5072633;28;20268;-69
2023/06/15 07:35:25;;;;;;;0.30;0.30;;;;;;;26.41;84.25;99215.81;5071230;28;20206;-72
2023/06/15 07:37:52;;;;;;;0.47;0.47;;;;;;;26.38;84.35;99231.88;5070985;28;20199;-72
2023/06/15 07:40:19;;;;;;;0.33;0.33;;;;;;;26.50;86.13;99230.69;5067838;28;20207;-69
2023/06/15 07:42:45;;;;;;;0.50;0.50;;;;;;;26.65;86.96;99223.94;5069575;28;20196;-69
2023/06/15 07:45:13;;;;;;;0.50;0.50;;;;;;;26.78;83.72;99224.34;5070526;28;20632;-69
2023/06/15 07:47:42;;;;;;;0.40;0.40;;;;;;;26.98;85.50;99215.31;5065936;28;20200;-69
2023/06/15 07:50:09;;;;;;;0.60;0.60;;;;;;;27.22;84.34;99219.91;5062925;28;20208;-69
2023/06/15 07:52:36;;;;;;;0.37;0.37;;;;;;;27.26;80.46;99217.78;5069079;28;20564;-69
2023/06/15 07:55:03;;;;;;;0.67;0.67;;;;;;;27.41;81.58;99216.19;5063367;28;20204;-68
2023/06/15 07:57:30;;;;;;;0.43;0.43;;;;;;;27.60;81.36;99213.34;5067352;28;20216;-69
2023/06/15 07:59:58;;;;;;;1.03;0.60;;;;;;;27.53;78.64;99214.97;5068788;28;20227;-70
2023/06/15 08:02:26;;;;;;;0.60;0.60;;;;;;;27.66;80.38;99210.09;5066752;28;20204;-69
2023/06/15 08:04:53;;;;;;;0.37;0.37;;;;;;;27.85;80.04;99220.34;5066762;28;20222;-68
2023/06/15 08:07:20;;;;;;;0.50;0.50;;;;;;;28.05;78.91;99211.22;5068375;28;20204;-69
2023/06/15 08:09:46;;;;;;;0.40;0.40;;;;;;;27.99;75.54;99211.84;5066230;28;20756;-69
2023/06/15 08:12:13;;;;;;;0.50;0.50;;;;;;;28.07;73.02;99217.19;5067882;28;20204;-69
2023/06/15 08:14:40;;;;;;;0.77;0.43;;;;;;;28.21;75.29;99220.16;5069123;28;20203;-69
2023/06/15 08:17:07;;;;;;;0.40;0.40;;;;;;;28.45;73.91;99223.63;5071265;28;20293;-68
2023/06/15 08:19:35;;;;;;;0.47;0.40;;;;;;;28.63;73.45;99215.56;5070859;28;20212;-68
2023/06/15 08:22:03;;;;;;;0.32;0.32;;;;;;;28.60;73.82;99221.16;5070682;28;20216;-69
2023/06/15 08:24:30;;;;;;;0.50;0.50;;;;;;;28.42;74.36;99220.50;5069137;28;20204;-69
2023/06/15 08:26:56;;;;;;;0.40;0.40;;;;;;;28.58;74.83;99217.88;5069888;28;20208;-68
2023/06/15 08:29:23;;;;;;;0.30;0.30;;;;;;;28.70;73.46;99216.56;5069034;28;20227;-70
2023/06/15 08:31:50;;;;;;;0.70;0.70;;;;;;;28.75;72.92;99222.19;5068543;28;20212;-69
2023/06/15 08:34:17;;;;;;;0.60;0.60;;;;;;;28.66;72.28;99221.34;5070643;28;20196;-69
2023/06/15 08:36:45;;;;;;;0.40;0.40;;;;;;;28.75;72.87;99224.84;5071633;28;20220;-69
2023/06/15 08:39:12;;;;;;;0.60;0.60;;;;;;;28.93;71.98;99222.00;5069934;28;20200;-69
2023/06/15 08:41:39;;;;;;;0.40;0.40;;;;;;;28.94;70.60;99221.84;5069838;28;20206;-69
2023/06/15 08:44:06;;;;;;;0.63;0.63;;;;;;;28.91;72.75;99197.59;5068255;28;20273;-69
2023/06/15 08:46:35;;;;;;;0.40;0.40;;;;;;;29.35;72.57;99211.19;5070677;28;20579;-69
2023/06/15 08:49:03;;;;;;;0.47;0.47;;;;;;;29.56;69.51;99208.84;5071377;28;20200;-69
2023/06/15 08:51:30;;;;;;;0.50;0.50;;;;;;;29.54;69.09;99213.44;5069509;28;20212;-68
2023/06/15 08:53:59;;;;;;;0.57;0.57;;;;;;;29.67;69.58;99216.34;5066308;28;21126;-68
2023/06/15 08:56:27;;;;;;;0.55;0.55;;;;;;;29.38;70.49;99221.44;5068729;28;20587;-68
2023/06/15 08:58:54;;;;;;;0.38;0.38;;;;;;;29.12;70.81;99217.19;5068009;28;20200;-69
2023/06/15 09:01:23;;;;;;;0.60;0.60;;;;;;;29.14;71.20;99194.06;5068105;28;20207;-68
2023/06/15 09:03:52;;;;;;;0.70;0.70;;;;;;;29.50;69.89;99209.53;5069053;28;20208;-69
2023/06/15 09:06:20;;;;;;;0.50;0.50;;;;;;;29.45;69.36;99222.41;5070186;28;20282;-69
2023/06/15 09:08:48;;;;;;;0.77;0.77;;;;;;;29.30;71.56;99213.53;5069760;28;20196;-69
2023/06/15 09:11:17;;;;;;;0.60;0.60;;;;;;;29.01;71.58;99209.63;5070511;28;20207;-70
2023/06/15 09:13:45;;;;;;;0.95;0.95;;;;;;;28.94;71.79;99213.94;5070919;28;20229;-70
2023/06/15 09:16:12;;;;;;;0.50;0.50;;;;;;;28.78;70.91;99199.94;5069130;28;20216;-70
2023/06/15 09:18:46;;;;;;;0.55;0.55;;;;;;;29.16;72.68;99202.66;5070020;28;20239;-70
2023/06/15 09:21:14;;;;;;;1.15;1.15;;;;;;;29.03;71.07;99202.34;5069451;28;20691;-70
2023/06/15 09:23:42;;;;;;;0.80;0.80;;;;;;;28.95;72.75;99199.72;5070345;28;20288;-70
2023/06/15 09:26:09;;;;;;;0.30;0.30;;;;;;;29.10;71.95;99203.34;5064467;28;20648;-71
2023/06/15 09:28:45;;;;;;;0.60;0.60;;;;;;;29.26;73.45;99180.53;5062388;28;20266;-71
2023/06/15 09:31:29;;;;;;;0.47;0.47;;;;;;;29.48;71.47;99199.09;5068176;28;20196;-70
2023/06/15 09:34:01;;;;;;;0.47;0.47;;;;;;;29.59;70.48;99192.63;5069790;28;20762;-70
2023/06/15 09:36:33;;;;;;;0.95;0.95;;;;;;;29.68;69.53;99192.41;5069756;28;20700;-69
2023/06/15 09:39:00;;;;;;;0.77;0.77;;;;;;;29.80;71.06;99190.19;5067750;28;20203;-68
2023/06/15 09:41:27;;;;;;;0.63;0.63;;;;;;;29.68;70.91;99181.03;5069756;28;20207;-66
2023/06/15 09:43:55;;;;;;;0.52;0.52;;;;;;;29.82;69.24;99182.13;5071663;28;20579;-68
2023/06/15 09:46:27;;;;;;;0.35;0.35;;;;;;;29.77;70.03;99169.41;5071629;28;20200;-68
2023/06/15 09:48:54;;;;;;;0.60;0.60;;;;;;;29.47;70.00;99157.00;5068178;28;20564;-70
2023/06/15 09:51:21;;;;;;;0.40;0.40;;;;;;;29.41;70.56;99176.19;5067825;28;20660;-71
2023/06/15 09:53:48;;;;;;;0.40;0.40;;;;;;;29.44;72.30;99173.19;5070449;28;20644;-69
2023/06/15 09:56:16;;;;;;;0.47;0.47;;;;;;;29.61;73.19;99172.13;5070873;28;20302;-69
2023/06/15 09:58:43;;;;;;;0.75;0.75;;;;;;;29.59;71.39;99166.22;5067479;28;20200;-70
2023/06/15 10:01:12;;;;;;;0.57;0.57;;;;;;;29.51;71.69;99137.19;5062797;28;20561;-69
2023/06/15 10:03:43;;;;;;;0.57;0.57;;;;;;;29.81;70.08;99172.53;5060666;28;20195;-70
2023/06/15 10:06:17;;;;;;;0.73;0.73;;;;;;;29.71;70.46;99159.53;5068677;28;20203;-70
2023/06/15 10:08:51;;;;;;;0.70;0.70;;;;;;;29.86;72.28;99167.56;5067489;28;20667;-66
2023/06/15 10:11:20;;;;;;;0.55;0.55;;;;;;;29.94;71.24;99160.44;5065941;28;20196;-68
2023/06/15 10:13:51;;;;;;;0.50;0.50;;;;;;;30.00;70.37;99165.00;5070859;28;20261;-67
2023/06/15 10:16:20;;;;;;;0.60;0.60;;;;;;;29.89;71.40;99162.75;5066430;28;20279;-68
2023/06/15 10:18:53;;;;;;;0.80;0.80;;;;;;;30.03;71.41;99159.38;5071042;28;20206;-67
2023/06/15 10:21:24;;;;;;;0.50;0.50;;;;;;;29.75;69.17;99160.84;5070515;28;20203;-68
2023/06/15 10:23:55;;;;;;;0.90;0.90;;;;;;;29.61;71.81;99158.94;5070466;28;20196;-68
2023/06/15 10:26:22;;;;;;;0.50;0.50;;;;;;;29.73;71.88;99165.47;5070959;28;20196;-68
2023/06/15 10:28:53;;;;;;;0.45;0.45;;;;;;;29.78;72.41;99155.22;5070946;28;20227;-67
2023/06/15 10:31:30;;;;;;;0.60;0.60;;;;;;;29.77;70.54;99150.91;5072005;28;20223;-68
2023/06/15 10:34:03;;;;;;;0.60;0.60;;;;;;;29.82;70.35;99156.50;5075090;28;20691;-67
2023/06/15 10:36:31;;;;;;;0.60;0.60;;;;;;;29.86;69.91;99167.56;5074814;28;20276;-67
2023/06/15 10:39:06;;;;;;;0.60;0.60;;;;;;;29.94;72.27;99160.44;5075056;28;20250;-68
2023/06/15 10:41:34;;;;;;;0.70;0.70;;;;;;;29.78;72.29;99149.94;5074924;28;20191;-68
2023/06/15 10:44:04;;;;;;;1.30;0.70;;;;;;;29.37;72.59;99156.41;5074588;28;20283;-67
2023/06/15 10:46:35;;;;;;;0.60;0.60;;;;;;;29.19;73.42;99154.78;5074555;28;20668;-68
2023/06/15 10:49:06;;;;;;;0.60;0.60;;;;;;;29.12;73.86;99164.38;5073891;28;20453;-65
2023/06/15 10:51:35;;;;;;;0.52;0.52;;;;;;;28.90;74.39;99164.28;5070595;28;20197;-66
2023/06/15 10:54:04;;;;;;;0.63;0.63;;;;;;;28.41;77.91;99174.03;5072954;28;20250;-65
2023/06/15 10:56:31;;;;;;;0.68;0.68;;;;;;;28.37;79.38;99173.53;5072512;28;20228;-65
2023/06/15 10:59:00;;;;;;;0.88;0.88;;;;;;;28.07;79.89;99164.47;5071976;28;20204;-65
2023/06/15 11:01:28;;;;;;;0.50;0.50;;;;;;;27.93;80.17;99165.06;5072121;28;20208;-66
2023/06/15 11:03:57;;;;;;;0.87;0.87;;;;;;;27.66;80.69;99167.94;5070713;28;20334;-66
2023/06/15 11:06:32;;;;;;;0.83;0.83;;;;;;;27.26;82.36;99144.91;5070786;28;20204;-65
2023/06/15 11:09:03;;;;;;;0.93;0.93;;;;;;;27.06;85.65;99160.09;5073069;28;20268;-66
2023/06/15 11:11:33;;;;;;;0.87;0.67;;;;;;;26.77;89.99;99164.00;5070157;28;20611;-65
2023/06/15 11:14:02;;;;;;;1.00;1.00;;;;;;;26.16;97.81;99169.25;5072533;28;20740;-65
2023/06/15 11:16:33;;;;;;;0.43;0.43;;;;;;;25.82;100.00;99172.50;5071881;28;20231;-64
2023/06/15 11:19:24;;;;;;;0.50;0.50;;;;;;;25.33;100.00;99170.28;5072805;28;20196;-64
2023/06/15 11:21:59;;;;;;;0.97;0.50;;;;;;;24.98;100.00;99182.25;5072559;28;20290;-65
2023/06/15 11:24:26;;;;;;;0.43;0.43;;;;;;;24.83;100.00;99177.63;5073146;28;20209;-65
2023/06/15 11:26:55;;;;;;;0.60;0.60;;;;;;;24.78;100.00;99174.56;5069479;28;20234;-65
2023/06/15 11:29:25;;;;;;;0.73;0.73;;;;;;;24.66;100.00;99176.50;5072813;28;20200;-65
2023/06/15 11:31:52;;;;;;;0.40;0.40;;;;;;;24.77;100.00;99168.50;5073275;28;20200;-65